Andahuayla, Peru

3:30 PM PET on May 30, 2015 (GMT -0500)
Andahuaylas | | Change Station
CLOSE
Current Station
Airport
Location: Andahuayla,
Elevation: 11299 ft
Nearby Weather Stations

Elev 11299 ft 13.71 °S, 73.35 °W | Updated 1 hour ago

Scattered Clouds
Scattered Clouds
64 °F
Feels Like 64 °F
N
8
Wind Variable Wind from NNW

Today
High -- | Low -- °F
--% Chance of Precip.
Yesterday
High -- | Low -- °F
Precip. -- in
6:09 AM 5:32 PM
Waxing Gibbous, 92% visible
Pressure 30.54 in
Visibility 6.2 miles
Clouds Scattered Clouds 5000 ft
Dew Point 41 °F
Humidity 42%
Rainfall 0.00 in
Snow Depth Not available.
UV 7 out of 12
Pollen Not available.
Air Quality Not available.
Flu Activity Not available.
METAR SPHY 301900Z 33007KT 9999 SCT050 18/05 Q1034 RMK PP000

More Conditions Fewer Conditions

Pressure 30.54 in
Visibility 6.2 miles
Clouds Scattered Clouds 5000 ft
Dew Point 41 °F
Humidity 42%
Rainfall 0.00 in
Snow Depth Not available.
UV 7 out of 12
Pollen Not available.
Air Quality Not available.
Flu Activity Not available.
METAR SPHY 301900Z 33007KT 9999 SCT050 18/05 Q1034 RMK PP000

More Conditions Fewer Conditions

10-Day Weather Forecast

Almanac

Astronomy

May. 30, 2015 Rise Set
Actual Time
Civil Twilight
Nautical Twilight
Astronomical Twilight
Moon
Length of Visible Light
Length of Day
Tomorrow will be .
, % of the Moon is Illuminated

Today's Extremes

Country Highs Country Lows

Community

WunderPhotos

Upload Photos

1,825,578 photos uploaded!

WunderBlogs® & News

Nearby

Air Quality

  Air Quality AQ Index Pollutant
Not available.

Snow Depth

Station Depth Elevation

Earthquake Activity

City Distance Mag. Time & Date
Minimum magnitude displayed is 2.5.

Coastal Water Temperatures

Place Temperature

Stations

Nearby Weather Stations

Station Location Temp. Windchill Dew Point Humidity Wind Precip. Elev Updated Type